Cosco Korea — VRGH3 — position and weather

sailwx.info

Track history (hours):
 
Tides and Currents Weather Stations Pressure Air Temp Water Temp Dewpoint Dewpoint Depression Visibility Wind Speed Wind Dir Waves Ship Positions

Cosco Korea

Last reported at 2018-Jun-24 04:35 UTC. Time now 2018-Jun-24 14:17 UTC.
Position N 36°00' E 120°12'.

Length 334 m; draft 11.8 m.

Type: Cargo ship. MMSI: 477685300.

Date/timePositionNaut miles runAvg speedWind from/ knotsBaromVisibWave heightAir tempDewpointWater temp
2018-Jun-24 04:35N 36°00' E 120°12'0 0.1
2018-Jun-24 03:41N 36°00' E 120°12'0 0.1
2018-Jun-24 02:46N 36°00' E 120°12'0 0.0
2018-Jun-24 02:16N 36°00' E 120°12'0 0.5
2018-Jun-24 01:59N 36°00' E 120°12'11 8.8
2018-Jun-24 00:43N 36°01' E 120°26'33912.4
2018-Jun-22 21:30N 30°34' E 122°12'611.3
2018-Jun-22 21:00N 30°36' E 122°06'1 2.0
2018-Jun-22 20:30N 30°36' E 122°05'0 0.0
2018-Jun-22 19:06N 30°36' E 122°05'0 0.0
2018-Jun-22 17:42N 30°36' E 122°05'0 0.1
2018-Jun-22 17:12N 30°36' E 122°05'0 0.0
2018-Jun-22 16:12N 30°36' E 122°05'0 0.1
2018-Jun-22 15:48N 30°36' E 122°05'0 0.0
2018-Jun-22 14:24N 30°36' E 122°05'0 0.0
2018-Jun-22 11:12N 30°36' E 122°05'0 0.0
2018-Jun-22 05:33N 30°36' E 122°05'0 0.0
2018-Jun-22 05:28N 30°36' E 122°05'400 9.0
2018-Jun-20 09:01N 24°28' E 119°10'212.5
2018-Jun-20 08:51N 24°27' E 119°08'412.2
2018-Jun-20 08:29N 24°24' E 119°05'712.4
2018-Jun-20 07:57N 24°20' E 118°59'512.3
2018-Jun-20 07:31N 24°18' E 118°53'712.4
2018-Jun-20 06:59N 24°17' E 118°46'612.6
2018-Jun-20 06:31N 24°15' E 118°40'814.1
2018-Jun-20 05:58N 24°13' E 118°32'919.9
2018-Jun-20 05:30N 24°10' E 118°22'918.4
2018-Jun-20 05:01N 24°16' E 118°14'816.1
2018-Jun-20 04:30N 24°22' E 118°08'612.0
2018-Jun-20 04:01N 24°26' E 118°03'5 9.1
2018-Jun-20 03:30N 24°27' E 117°58'0 0.2
2018-Jun-20 03:00N 24°27' E 117°58'0 0.0
2018-Jun-20 02:30N 24°27' E 117°58'0 0.1
2018-Jun-20 02:00N 24°27' E 117°58'0 0.1
2018-Jun-20 01:30N 24°27' E 117°58'0 0.1
2018-Jun-20 01:00N 24°27' E 117°58'0 0.1
2018-Jun-20 00:30N 24°27' E 117°58'0 0.1
2018-Jun-20 00:00N 24°27' E 117°58'0 0.1
2018-Jun-19 23:30N 24°27' E 117°58'0 0.1
2018-Jun-19 23:00N 24°27' E 117°58'0 0.1
2018-Jun-19 22:30N 24°27' E 117°58'0 0.1
2018-Jun-19 22:00N 24°27' E 117°58'0 0.0
2018-Jun-19 21:30N 24°27' E 117°58'0 0.1
2018-Jun-19 20:57N 24°27' E 117°58'0 0.0
2018-Jun-19 20:30N 24°27' E 117°58'0 0.1
2018-Jun-19 20:00N 24°27' E 117°58'0 0.1
2018-Jun-19 19:30N 24°27' E 117°58'0 0.1
2018-Jun-19 19:00N 24°27' E 117°58'0 0.1
2018-Jun-19 18:30N 24°27' E 117°58'0 0.1
2018-Jun-19 18:00N 24°27' E 117°58'1 2.9
2018-Jun-19 17:30N 24°27' E 117°60'611.2
2018-Jun-19 17:00N 24°25' E 118°06'713.5
2018-Jun-19 16:31N 24°20' E 118°11'5 9.1
2018-Jun-19 16:01N 24°16' E 118°14'5 9.1
2018-Jun-19 15:30N 24°13' E 118°17'5 9.5
2018-Jun-19 15:00N 24°09' E 118°20'612.4
2018-Jun-19 14:30N 24°03' E 118°20'612.0
2018-Jun-19 13:58N 23°56' E 118°18'612.1
2018-Jun-19 13:29N 23°51' E 118°15'611.8
2018-Jun-19 13:01N 23°46' E 118°13'712.7
2018-Jun-19 12:29N 23°40' E 118°10'711.2
2018-Jun-19 11:54N 23°34' E 118°06'511.2
2018-Jun-19 11:30N 23°30' E 118°04'611.0
2018-Jun-19 10:59N 23°25' E 118°01'510.6
2018-Jun-19 10:30N 23°21' E 117°57'612.0
2018-Jun-19 10:00N 23°18' E 117°52'511.2
2018-Jun-19 09:30N 23°15' E 117°47'611.4
2018-Jun-19 09:00N 23°13' E 117°41'611.7
2018-Jun-19 08:30N 23°10' E 117°35'711.9
2018-Jun-19 07:53N 23°06' E 117°29'  
2018-Jun-14 22:02N 01°45' E 104°43'319.2
2018-Jun-14 21:52N 01°42' E 104°41'718.5
2018-Jun-14 21:29N 01°36' E 104°38'918.9
2018-Jun-14 20:59N 01°28' E 104°32'919.2
2018-Jun-14 20:30N 01°22' E 104°25'1121.0
2018-Jun-14 20:00N 01°16' E 104°16'1123.2
2018-Jun-14 19:31N 01°14' E 104°05'1121.7
2018-Jun-14 19:00N 01°13' E 103°54'613.1
2018-Jun-14 18:30N 01°13' E 103°48'3 5.0
2018-Jun-14 17:59N 01°15' E 103°47'0 0.1
2018-Jun-14 17:29N 01°15' E 103°47'0 0.0
2018-Jun-14 17:00N 01°15' E 103°47'0 0.0
2018-Jun-14 16:28N 01°15' E 103°47'0 0.0
2018-Jun-14 15:58N 01°15' E 103°47'0 0.0
2018-Jun-14 15:29N 01°15' E 103°47'0 0.1
2018-Jun-14 15:00N 01°15' E 103°47'0 0.1
2018-Jun-14 14:25N 01°15' E 103°47'0 0.0
2018-Jun-14 13:59N 01°15' E 103°47'0 0.0
2018-Jun-14 13:26N 01°15' E 103°47'0 0.0
2018-Jun-14 12:59N 01°15' E 103°47'0 0.0
2018-Jun-14 12:29N 01°15' E 103°47'0 0.0
2018-Jun-14 11:58N 01°15' E 103°47'0 0.0
2018-Jun-14 11:28N 01°15' E 103°47'0 0.0
2018-Jun-14 10:59N 01°15' E 103°47'0 0.0
2018-Jun-14 10:28N 01°15' E 103°47'0 0.0
2018-Jun-14 09:58N 01°15' E 103°47'0 0.0
2018-Jun-14 09:28N 01°15' E 103°47'0 0.0
2018-Jun-14 08:59N 01°15' E 103°47'0 0.0
2018-Jun-14 08:29N 01°15' E 103°47'0 0.1
2018-Jun-14 07:59N 01°15' E 103°47'0 0.1
2018-Jun-14 07:28N 01°15' E 103°47'0 0.0
2018-Jun-14 06:59N 01°15' E 103°47'0 0.0
2018-Jun-14 06:29N 01°15' E 103°47'0 0.0
2018-Jun-14 06:00N 01°15' E 103°47'0 0.1
2018-Jun-14 05:25N 01°15' E 103°47'0 0.1
2018-Jun-14 04:59N 01°15' E 103°47'  
Track history (hours):
 
Tides and Currents Weather Stations Pressure Air Temp Water Temp Dewpoint Dewpoint Depression Visibility Wind Speed Wind Dir Waves Ship Positions

Cosco Korea

Last reported at 2018-Jun-24 04:35 UTC. Time now 2018-Jun-24 14:17 UTC.
Position N 36°00' E 120°12'.

Length 334 m; draft 11.8 m.

Type: Cargo ship. MMSI: 477685300.

Date/timePositionNaut miles runAvg speedWind from/ knotsBaromVisibWave heightAir tempDewpointWater temp
2018-Jun-24 04:35N 36°00' E 120°12'0 0.1
2018-Jun-24 03:41N 36°00' E 120°12'0 0.1
2018-Jun-24 02:46N 36°00' E 120°12'0 0.0
2018-Jun-24 02:16N 36°00' E 120°12'0 0.5
2018-Jun-24 01:59N 36°00' E 120°12'11 8.8
2018-Jun-24 00:43N 36°01' E 120°26'33912.4
2018-Jun-22 21:30N 30°34' E 122°12'611.3
2018-Jun-22 21:00N 30°36' E 122°06'1 2.0
2018-Jun-22 20:30N 30°36' E 122°05'0 0.0
2018-Jun-22 19:06N 30°36' E 122°05'0 0.0
2018-Jun-22 17:42N 30°36' E 122°05'0 0.1
2018-Jun-22 17:12N 30°36' E 122°05'0 0.0
2018-Jun-22 16:12N 30°36' E 122°05'0 0.1
2018-Jun-22 15:48N 30°36' E 122°05'0 0.0
2018-Jun-22 14:24N 30°36' E 122°05'0 0.0
2018-Jun-22 11:12N 30°36' E 122°05'0 0.0
2018-Jun-22 05:33N 30°36' E 122°05'0 0.0
2018-Jun-22 05:28N 30°36' E 122°05'400 9.0
2018-Jun-20 09:01N 24°28' E 119°10'212.5
2018-Jun-20 08:51N 24°27' E 119°08'412.2
2018-Jun-20 08:29N 24°24' E 119°05'712.4
2018-Jun-20 07:57N 24°20' E 118°59'512.3
2018-Jun-20 07:31N 24°18' E 118°53'712.4
2018-Jun-20 06:59N 24°17' E 118°46'612.6
2018-Jun-20 06:31N 24°15' E 118°40'814.1
2018-Jun-20 05:58N 24°13' E 118°32'919.9
2018-Jun-20 05:30N 24°10' E 118°22'918.4
2018-Jun-20 05:01N 24°16' E 118°14'816.1
2018-Jun-20 04:30N 24°22' E 118°08'612.0
2018-Jun-20 04:01N 24°26' E 118°03'5 9.1
2018-Jun-20 03:30N 24°27' E 117°58'0 0.2
2018-Jun-20 03:00N 24°27' E 117°58'0 0.0
2018-Jun-20 02:30N 24°27' E 117°58'0 0.1
2018-Jun-20 02:00N 24°27' E 117°58'0 0.1
2018-Jun-20 01:30N 24°27' E 117°58'0 0.1
2018-Jun-20 01:00N 24°27' E 117°58'0 0.1
2018-Jun-20 00:30N 24°27' E 117°58'0 0.1
2018-Jun-20 00:00N 24°27' E 117°58'0 0.1
2018-Jun-19 23:30N 24°27' E 117°58'0 0.1
2018-Jun-19 23:00N 24°27' E 117°58'0 0.1
2018-Jun-19 22:30N 24°27' E 117°58'0 0.1
2018-Jun-19 22:00N 24°27' E 117°58'0 0.0
2018-Jun-19 21:30N 24°27' E 117°58'0 0.1
2018-Jun-19 20:57N 24°27' E 117°58'0 0.0
2018-Jun-19 20:30N 24°27' E 117°58'0 0.1
2018-Jun-19 20:00N 24°27' E 117°58'0 0.1
2018-Jun-19 19:30N 24°27' E 117°58'0 0.1
2018-Jun-19 19:00N 24°27' E 117°58'0 0.1
2018-Jun-19 18:30N 24°27' E 117°58'0 0.1
2018-Jun-19 18:00N 24°27' E 117°58'1 2.9
2018-Jun-19 17:30N 24°27' E 117°60'611.2
2018-Jun-19 17:00N 24°25' E 118°06'713.5
2018-Jun-19 16:31N 24°20' E 118°11'5 9.1
2018-Jun-19 16:01N 24°16' E 118°14'5 9.1
2018-Jun-19 15:30N 24°13' E 118°17'5 9.5
2018-Jun-19 15:00N 24°09' E 118°20'612.4
2018-Jun-19 14:30N 24°03' E 118°20'612.0
2018-Jun-19 13:58N 23°56' E 118°18'612.1
2018-Jun-19 13:29N 23°51' E 118°15'611.8
2018-Jun-19 13:01N 23°46' E 118°13'712.7
2018-Jun-19 12:29N 23°40' E 118°10'711.2
2018-Jun-19 11:54N 23°34' E 118°06'511.2
2018-Jun-19 11:30N 23°30' E 118°04'611.0
2018-Jun-19 10:59N 23°25' E 118°01'510.6
2018-Jun-19 10:30N 23°21' E 117°57'612.0
2018-Jun-19 10:00N 23°18' E 117°52'511.2
2018-Jun-19 09:30N 23°15' E 117°47'611.4
2018-Jun-19 09:00N 23°13' E 117°41'611.7
2018-Jun-19 08:30N 23°10' E 117°35'711.9
2018-Jun-19 07:53N 23°06' E 117°29'  
2018-Jun-14 22:02N 01°45' E 104°43'319.2
2018-Jun-14 21:52N 01°42' E 104°41'718.5
2018-Jun-14 21:29N 01°36' E 104°38'918.9
2018-Jun-14 20:59N 01°28' E 104°32'919.2
2018-Jun-14 20:30N 01°22' E 104°25'1121.0
2018-Jun-14 20:00N 01°16' E 104°16'1123.2
2018-Jun-14 19:31N 01°14' E 104°05'1121.7
2018-Jun-14 19:00N 01°13' E 103°54'613.1
2018-Jun-14 18:30N 01°13' E 103°48'3 5.0
2018-Jun-14 17:59N 01°15' E 103°47'0 0.1
2018-Jun-14 17:29N 01°15' E 103°47'0 0.0
2018-Jun-14 17:00N 01°15' E 103°47'0 0.0
2018-Jun-14 16:28N 01°15' E 103°47'0 0.0
2018-Jun-14 15:58N 01°15' E 103°47'0 0.0
2018-Jun-14 15:29N 01°15' E 103°47'0 0.1
2018-Jun-14 15:00N 01°15' E 103°47'0 0.1
2018-Jun-14 14:25N 01°15' E 103°47'0 0.0
2018-Jun-14 13:59N 01°15' E 103°47'0 0.0
2018-Jun-14 13:26N 01°15' E 103°47'0 0.0
2018-Jun-14 12:59N 01°15' E 103°47'0 0.0
2018-Jun-14 12:29N 01°15' E 103°47'0 0.0
2018-Jun-14 11:58N 01°15' E 103°47'0 0.0
2018-Jun-14 11:28N 01°15' E 103°47'0 0.0
2018-Jun-14 10:59N 01°15' E 103°47'0 0.0
2018-Jun-14 10:28N 01°15' E 103°47'0 0.0
2018-Jun-14 09:58N 01°15' E 103°47'0 0.0
2018-Jun-14 09:28N 01°15' E 103°47'0 0.0
2018-Jun-14 08:59N 01°15' E 103°47'0 0.0
2018-Jun-14 08:29N 01°15' E 103°47'0 0.1
2018-Jun-14 07:59N 01°15' E 103°47'0 0.1
2018-Jun-14 07:28N 01°15' E 103°47'0 0.0
2018-Jun-14 06:59N 01°15' E 103°47'0 0.0
2018-Jun-14 06:29N 01°15' E 103°47'0 0.0
2018-Jun-14 06:00N 01°15' E 103°47'0 0.1
2018-Jun-14 05:25N 01°15' E 103°47'0 0.1
2018-Jun-14 04:59N 01°15' E 103°47'  

Dump ship's entire track history